Date,TemperatureHighF,TemperatureAvgF,TemperatureLowF,DewpointHighF,DewpointAvgF,DewpointLowF,HumidityHigh,HumidityAvg,HumidityLow,PressureMaxIn,PressureMinIn,WindSpeedMaxMPH,WindSpeedAvgMPH,GustSpeedMaxMPH,PrecipitationSumIn
2012-1-1,42,34,27,38,30,23,93,87,72,29.91,29.53,14,3,14,0.08
2012-1-2,27,22,14,24,18,9,90,85,77,30.21,29.88,18,3,18,0.00
2012-1-3,31,19,14,19,10,6,81,69,57,30.33,30.09,10,1,10,0.00
2012-1-4,38,27,17,26,17,6,79,65,53,30.09,29.88,18,4,18,0.00
2012-1-5,43,34,26,31,25,22,86,72,51,29.97,29.71,16,2,16,0.00
2012-1-6,52,42,35,34,29,26,77,62,48,29.74,29.68,17,3,17,0.25
2012-1-7,42,36,26,31,26,18,80,69,61,30.18,29.71,22,3,22,0.04
2012-1-8,42,30,22,25,20,16,80,67,49,30.36,30.18,11,1,11,0.00
2012-1-9,42,32,23,26,21,16,80,65,49,30.27,29.91,23,4,23,0.00
2012-1-10,51,36,26,34,26,21,84,69,48,30.03,29.82,18,2,18,0.00
2012-1-11,50,38,28,36,28,23,84,66,50,29.82,29.50,12,2,12,0.00
2012-1-12,41,33,18,36,28,13,90,82,61,29.50,29.35,17,2,17,0.17
2012-1-13,30,25,18,26,21,13,90,86,81,29.97,29.38,23,4,23,0.00
2012-1-14,27,19,11,18,12,3,86,75,59,30.21,29.97,15,3,15,0.00
2012-1-15,29,14,1,15,4,-6,74,65,52,30.39,30.15,16,3,16,0.00
2012-1-16,46,31,19,38,25,9,95,77,59,30.15,29.74,21,3,21,0.00
2012-1-17,37,32,23,36,31,20,97,95,88,30.09,29.50,21,2,21,0.21
2012-1-18,30,22,18,20,15,8,89,74,55,30.24,29.91,18,3,18,0.21
2012-1-19,25,18,7,22,10,-2,89,71,63,30.12,29.74,27,5,27,0.21
2012-1-20,17,12,6,8,4,-3,78,69,60,30.21,30.06,20,3,20,0.21
2012-1-21,30,16,7,16,7,1,77,67,52,30.24,30.06,21,3,21,0.21
2012-1-22,36,24,13,36,20,4,98,85,67,30.18,29.68,22,5,22,0.21
2012-1-23,44,37,29,43,36,22,98,94,73,29.85,29.44,36,8,36,0.21
2012-1-24,30,29,29,24,23,22,80,78,74,30.33,29.85,27,6,27,0.04
2012-1-25,34,30,27,26,24,22,82,76,68,30.36,30.12,11,2,11,0.04
2012-1-26,34,31,28,31,28,24,95,88,80,30.12,29.59,12,3,12,0.04
2012-1-27,42,34,30,32,28,22,96,80,57,29.97,29.59,18,2,18,0.04
2012-1-28,36,31,26,30,22,13,94,71,52,30.06,29.74,34,6,34,0.04
2012-1-29,30,27,20,26,19,11,86,72,62,30.21,29.88,28,5,28,0.04
2012-1-30,42,28,14,32,19,7,82,70,55,30.21,29.88,15,2,15,0.04
2012-1-31,57,48,39,48,39,32,90,70,51,29.91,29.82,21,6,21,0.08
2012-2-1,50,39,35,48,34,29,90,81,77,30.15,29.82,28,2,28,0.04
2012-2-2,48,37,28,33,29,22,83,73,54,30.39,30.12,16,1,16,0.04
2012-2-3,45,35,28,36,29,22,86,79,67,30.44,30.36,16,1,16,0.04
2012-2-4,48,36,26,32,25,18,77,66,49,30.36,30.15,18,3,18,0.04
2012-2-5,49,32,21,32,22,16,80,67,49,30.27,30.15,14,2,14,0.04
2012-2-6,35,30,24,29,24,18,87,79,72,30.18,30.09,21,4,21,0.04
2012-2-7,36,32,28,29,26,19,85,77,66,30.33,30.12,15,3,15,0.04
2012-2-8,39,28,20,23,16,11,74,61,49,30.33,30.24,17,2,17,0.04
2012-2-9,40,28,21,22,15,12,75,60,40,30.24,30.06,23,4,23,0.04
2012-2-10,32,27,12,28,20,5,86,73,61,30.06,29.85,16,2,16,0.00
2012-2-11,25,14,3,13,6,-4,75,71,55,30.24,30.03,16,2,16,0.00
2012-2-12,36,24,19,20,14,10,73,65,51,30.21,30.12,24,6,24,0.00
2012-2-13,33,26,16,17,11,6,68,54,41,30.12,29.91,17,3,17,0.00
2012-2-14,32,30,27,26,24,17,82,79,62,30.00,29.85,10,2,10,0.00
2012-2-15,44,35,32,34,30,26,93,79,64,30.12,30.00,18,4,18,0.25
2012-2-16,43,36,27,40,33,23,97,90,76,30.06,29.94,18,3,18,0.13
2012-2-17,46,36,25,30,25,22,88,68,48,30.12,29.94,20,3,20,0.00
2012-2-18,40,33,24,30,20,12,77,61,45,30.21,29.97,19,4,19,0.00
2012-2-19,39,27,20,21,14,10,67,58,47,30.21,30.12,18,2,18,0.00
2012-2-20,44,29,16,25,16,7,74,58,42,30.33,30.03,23,3,23,0.00
2012-2-21,40,35,31,37,28,19,94,75,56,30.03,29.62,29,5,29,0.04
2012-2-22,40,35,30,31,28,25,87,76,67,29.68,29.44,20,3,20,0.00
2012-2-23,38,32,27,34,30,23,94,89,78,29.65,29.47,17,2,17,0.08
2012-2-24,34,32,28,31,30,26,96,93,88,29.82,29.35,18,4,18,0.08
2012-2-25,34,27,19,29,23,14,93,86,79,30.33,29.79,21,3,21,0.05
2012-2-26,39,27,10,24,17,6,86,68,51,30.36,30.03,38,4,38,0.00
2012-2-27,37,33,30,24,20,17,66,59,53,30.44,30.03,34,6,34,0.00
2012-2-28,42,28,22,25,19,16,77,69,52,30.44,30.18,18,1,18,0.00
2012-3-2,33,33,33,32,32,31,95,94,94,29.44,29.35,34,16,34,0.04
2012-3-3,33,30,27,32,25,21,95,80,64,29.76,29.44,41,11,41,0.00
2012-3-4,32,28,25,26,23,20,89,82,70,29.91,29.76,13,2,13,0.04
2012-3-5,32,25,16,21,15,9,82,65,54,30.36,29.91,17,2,17,0.00
2012-3-6,62,45,28,38,27,16,65,51,39,30.33,29.97,33,7,33,0.09
2012-3-7,65,57,49,43,36,27,53,44,38,30.06,29.88,30,8,30,0.00
2012-3-8,61,42,29,54,33,18,92,71,53,30.15,29.79,30,7,30,0.29
2012-3-9,34,30,22,26,17,8,77,59,48,30.50,30.12,30,5,30,0.04
2012-3-10,52,37,21,26,18,8,61,47,36,30.50,30.21,26,5,26,0.00
2012-3-11,69,50,30,36,26,17,59,41,24,30.30,30.15,16,3,16,0.00
2012-3-12,66,54,47,57,47,28,95,78,43,30.15,29.76,24,4,24,0.49
2012-3-13,64,52,40,49,39,23,94,65,34,30.12,29.88,26,4,26,0.00
2012-3-14,80,58,37,56,40,23,69,53,39,30.12,29.97,21,3,21,0.00
2012-3-15,75,64,55,64,56,45,93,75,57,30.03,29.97,18,2,18,0.09
2012-3-16,80,63,48,63,54,47,95,75,50,30.12,30.00,16,2,16,0.00
2012-3-17,79,65,50,59,52,46,91,66,40,30.18,30.06,24,3,24,0.00
2012-3-18,76,63,54,60,53,47,89,72,51,30.12,30.03,16,2,16,0.00
2012-3-19,80,66,53,63,55,50,91,70,45,30.09,29.97,23,2,23,0.04
2012-3-20,86,70,58,57,53,48,83,59,35,30.12,30.00,24,2,24,0.00
2012-3-21,89,71,56,59,53,48,81,55,33,30.18,30.06,11,1,11,0.00
2012-3-22,88,69,56,60,53,50,84,60,35,30.15,30.06,20,2,20,0.00
2012-3-23,69,62,55,62,56,52,95,80,62,30.06,29.85,16,1,16,0.95
2012-3-24,59,56,55,57,55,54,97,95,91,29.91,29.79,10,1,10,0.04
2012-3-25,72,58,49,57,50,37,96,77,47,30.12,29.88,27,3,27,0.04
2012-3-26,52,42,32,37,25,18,61,50,39,30.36,30.12,21,6,21,0.04
2012-3-27,60,45,33,37,24,15,54,44,34,30.36,29.82,36,7,36,0.04
2012-3-28,64,57,45,50,39,28,75,52,43,30.00,29.74,30,8,30,0.04
2012-3-29,55,44,34,34,28,24,68,54,45,30.12,30.00,19,4,19,0.04
2012-3-30,40,37,35,37,31,25,90,79,59,30.03,29.76,21,5,21,0.38
2012-3-31,49,39,35,36,32,31,90,77,60,30.00,29.88,15,4,15,0.38
2012-4-1,61,48,39,49,41,33,87,78,63,29.91,29.71,13,2,13,0.38
2012-4-2,64,50,40,42,36,28,81,60,42,30.03,29.79,21,6,21,0.38
2012-4-3,67,52,40,51,40,26,88,65,47,30.00,29.85,17,4,17,0.62
2012-4-4,65,53,41,47,35,25,77,52,35,30.00,29.88,18,4,18,0.38
2012-4-5,55,44,37,33,26,21,59,48,41,30.12,29.91,21,5,21,0.38
2012-4-6,61,44,30,34,24,15,59,46,34,30.30,30.12,20,2,20,0.38
2012-4-7,67,48,30,38,26,16,69,45,19,30.33,30.12,21,2,21,0.38
2012-4-8,62,52,44,40,31,24,69,47,28,30.18,30.06,31,5,31,0.38
2012-4-9,62,49,39,37,28,17,73,47,26,30.06,29.88,26,4,26,0.38
2012-4-10,42,37,32,24,20,16,56,49,40,30.06,29.94,23,4,23,0.38
2012-4-11,58,42,34,33,24,18,58,49,38,30.24,30.03,16,3,16,0.38
2012-4-12,62,44,29,37,26,18,73,52,36,30.27,30.15,18,2,18,0.38
2012-4-13,68,49,30,37,28,20,71,47,28,30.24,30.06,21,3,21,0.38
2012-4-14,65,56,50,55,43,27,88,63,36,30.09,29.88,21,3,21,0.38
2012-4-15,72,64,57,64,58,54,97,84,69,29.91,29.74,18,3,18,1.16
2012-4-16,68,58,44,61,49,34,96,73,53,30.15,29.62,35,9,35,0.54
2012-4-17,60,45,33,38,31,23,83,60,41,30.36,30.15,16,2,16,0.54
2012-4-18,68,50,32,43,34,23,78,55,38,30.33,29.97,28,4,28,0.54
2012-4-19,74,62,53,52,46,39,68,57,45,30.00,29.79,16,2,16,0.54
2012-4-20,63,53,38,50,42,35,91,70,47,29.94,29.68,20,4,20,0.54
2012-4-21,56,44,34,36,30,22,88,61,41,30.00,29.94,16,4,16,0.54
2012-4-22,56,43,35,32,24,17,62,48,38,30.03,30.00,24,5,24,0.54
2012-4-23,59,45,35,28,21,17,50,40,25,30.00,29.74,25,4,25,0.54
2012-4-24,62,48,38,32,24,18,55,40,26,29.74,29.68,29,3,29,0.54
2012-4-25,62,48,35,44,34,22,86,62,43,29.82,29.71,13,2,13,0.54
2012-4-26,57,49,38,48,39,20,89,71,47,30.12,29.65,16,3,16,0.54
2012-4-27,58,43,29,31,23,16,61,45,33,30.27,30.12,13,2,13,0.05
2012-4-28,44,42,37,36,31,25,83,67,48,30.24,30.09,15,3,15,0.16
2012-4-29,64,48,31,39,32,26,84,57,34,30.30,30.12,21,4,21,0.05
2012-4-30,60,51,42,57,45,32,93,81,58,30.15,29.88,21,2,21,0.58
2012-5-1,64,57,48,55,51,47,95,81,61,30.06,29.91,16,2,16,0.05
2012-5-2,83,64,56,68,58,54,98,85,48,29.91,29.85,24,5,24,0.00
2012-5-4,80,71,62,66,62,57,86,73,62,30.00,29.91,13,4,13,0.13
2012-5-5,70,62,56,58,55,51,91,79,65,30.09,29.97,13,4,13,0.00
2012-5-6,72,61,51,53,48,34,88,64,38,30.12,29.94,21,4,21,0.00
2012-5-7,66,56,50,61,49,34,90,78,39,29.97,29.85,24,2,24,0.08
2012-5-8,71,58,48,58,47,39,94,72,43,29.88,29.82,21,3,21,0.00
2012-5-9,66,55,46,47,41,32,78,61,47,29.91,29.82,26,3,26,0.00
2012-5-10,68,52,39,42,35,29,77,56,34,30.03,29.91,14,2,14,0.00
2012-5-11,76,58,38,44,35,28,76,47,24,30.15,30.03,21,2,21,0.00
2012-5-12,63,59,55,55,49,34,86,70,43,30.21,30.12,11,1,11,0.09
2012-5-13,68,58,52,56,51,44,90,76,63,30.24,30.12,11,1,11,0.00
2012-5-14,78,60,44,50,42,34,83,55,31,30.12,30.00,13,1,13,0.00
2012-5-15,84,64,44,51,43,34,76,50,30,30.03,29.85,24,3,24,0.00
2012-5-16,69,59,51,50,37,30,74,44,33,30.12,29.88,15,4,15,0.00
2012-5-17,73,57,40,43,35,26,64,44,29,30.21,30.09,12,2,12,0.00
2012-5-18,81,64,46,47,39,30,59,41,27,30.15,30.03,17,2,17,0.00
2012-5-19,88,70,50,52,44,38,69,42,19,30.12,30.06,19,2,19,0.00
2012-5-20,90,74,59,61,52,41,68,47,33,30.12,29.97,20,2,20,0.00
2012-5-21,63,59,54,54,51,46,82,74,70,30.09,30.06,11,2,11,0.00
2012-5-22,71,59,47,51,44,39,77,61,44,30.06,29.94,11,2,11,0.00
2012-5-23,81,63,45,54,46,39,84,57,32,29.97,29.82,18,2,18,0.00
2012-5-24,88,73,57,60,52,44,82,51,31,29.91,29.71,24,4,24,0.00
2012-5-25,82,72,62,57,50,42,65,47,34,30.18,29.79,18,3,18,0.00
2012-5-26,73,64,59,60,54,43,89,69,50,30.27,30.09,15,2,15,0.12
2012-5-27,93,76,62,68,60,53,75,58,37,30.12,29.94,21,3,21,0.00
2012-5-28,90,78,65,68,60,52,84,56,35,29.94,29.76,26,3,26,0.00
2012-5-29,84,73,61,58,50,38,72,47,29,29.88,29.74,26,3,26,0.00
2012-5-30,70,60,51,48,42,37,72,53,43,29.94,29.85,12,2,12,0.00
2012-5-31,54,50,45,50,43,35,97,78,55,30.00,29.85,13,1,13,0.50
2012-6-1,51,49,46,50,48,45,98,98,96,29.88,29.68,14,3,14,0.75
2012-6-2,72,58,45,55,46,41,98,71,37,29.79,29.71,18,4,18,0.00
2012-6-3,78,61,56,55,51,43,86,71,37,29.85,29.76,16,3,16,0.00
2012-6-4,75,64,56,51,48,45,72,56,40,29.94,29.82,9,2,9,0.00
2012-6-5,69,60,52,50,46,42,78,60,44,30.03,29.94,10,2,10,0.00
2012-6-6,77,62,49,52,47,43,85,59,36,30.09,30.03,8,1,8,0.00
2012-6-7,81,65,52,54,47,39,81,54,35,30.12,30.06,15,2,15,0.00
2012-6-8,84,66,49,56,47,40,75,51,34,30.09,29.94,11,2,11,0.00
2012-6-9,88,73,59,58,51,47,71,48,31,30.00,29.91,14,2,14,0.00
2012-6-10,90,75,59,60,53,48,73,49,31,30.03,29.94,14,2,14,0.00
2012-6-11,83,74,67,68,61,51,79,64,44,29.97,29.85,21,2,21,0.00
2012-6-12,74,67,58,65,50,41,88,57,39,30.12,29.85,18,3,18,0.00
2012-6-13,75,61,49,45,42,39,75,51,32,30.24,30.12,11,1,11,0.00
2012-6-14,83,66,51,50,44,40,72,48,24,30.21,30.09,16,2,16,0.00
2012-6-15,89,73,55,56,49,42,72,44,29,30.15,30.09,16,2,16,0.00
2012-6-16,90,82,70,66,60,56,70,49,38,30.15,29.94,20,4,20,0.00
2012-6-17,81,72,64,69,58,50,92,65,40,29.94,29.88,13,2,13,0.21
2012-6-18,91,76,62,71,62,52,87,65,42,29.88,29.76,22,3,22,0.00
2012-6-19,94,83,75,68,63,60,65,52,39,30.03,29.88,21,3,21,0.13
2012-6-20,93,81,70,64,60,55,72,50,33,30.09,29.94,28,3,28,0.04
2012-6-21,86,73,63,66,62,56,91,69,52,29.97,29.91,20,2,20,0.13
2012-6-22,82,69,58,62,56,48,95,68,40,30.00,29.97,15,1,15,0.00
2012-6-23,84,70,56,57,52,49,83,56,35,30.06,30.00,12,1,12,0.00
2012-6-24,85,74,66,60,56,49,72,53,38,30.06,29.94,14,1,14,0.00
2012-6-25,77,68,57,58,48,41,71,51,32,30.09,29.97,11,3,11,0.00
2012-6-26,82,67,52,50,46,42,74,49,30,30.12,30.00,11,1,11,0.00
2012-6-27,89,72,55,54,50,46,81,48,27,30.03,29.85,24,2,24,0.00
2012-6-28,98,80,66,73,61,47,68,52,40,29.88,29.79,17,2,17,0.00
2012-6-29,84,76,67,66,60,54,85,60,40,29.97,29.79,10,1,10,0.00
2012-6-30,86,78,66,70,64,57,93,65,46,29.91,29.79,14,2,14,0.04
2012-7-1,92,71,65,72,62,59,91,76,41,29.94,28.91,13,0,13,0.04
2012-7-2,94,78,64,68,64,61,91,65,37,29.00,28.91,10,1,10,0.00
2012-7-3,95,84,75,71,66,61,83,59,39,28.94,28.82,14,2,14,0.00
2012-7-4,101,86,75,74,68,62,83,58,30,28.88,28.85,18,2,18,0.00
2012-7-5,101,86,76,74,67,61,74,55,32,28.94,28.88,13,2,13,0.00
2012-7-6,103,87,73,75,69,65,80,58,35,28.97,28.91,14,2,14,0.00
2012-7-7,99,85,78,73,69,63,78,60,39,29.97,28.91,17,2,17,0.04
2012-7-8,85,75,69,70,62,51,97,69,35,30.06,29.97,10,2,10,0.25
2012-7-9,89,75,64,62,57,50,76,56,35,30.06,29.97,12,2,12,0.00
2012-7-10,87,74,64,56,52,48,74,48,31,30.09,30.03,12,2,12,0.00
2012-7-11,89,74,64,54,50,43,65,43,29,30.15,30.09,17,1,17,0.00
2012-7-12,92,75,60,54,49,44,67,41,26,30.12,30.06,16,2,16,0.00
2012-7-13,95,77,66,66,58,46,74,53,32,30.09,30.03,16,2,16,0.00
2012-7-14,94,76,68,70,64,57,95,68,35,30.09,29.97,16,2,16,0.46
2012-7-15,88,75,67,74,67,60,97,77,50,30.06,29.97,16,2,16,0.04
2012-7-16,94,79,65,69,63,56,89,61,32,30.03,29.85,14,1,14,0.00
2012-7-17,98,84,73,72,66,61,81,56,36,29.85,29.79,13,2,13,0.00
2012-7-18,90,80,74,76,69,64,88,69,57,29.97,29.82,10,2,10,0.12
2012-7-19,77,71,69,72,69,65,98,93,74,29.97,29.88,16,1,16,0.96
2012-7-22,85,80,75,65,62,58,70,55,42,30.06,30.03,14,1,14,0.96
2012-7-23,96,82,72,71,67,64,87,62,39,30.03,29.85,18,2,18,0.96
2012-7-24,83,75,67,72,66,60,94,75,53,30.00,29.85,11,1,11,0.96
2012-7-25,88,76,65,77,65,59,88,71,47,29.97,29.62,24,3,24,0.96
2012-7-26,82,75,70,75,71,68,98,88,62,29.76,29.59,12,1,12,0.96
2012-7-27,76,70,66,71,67,64,97,92,78,29.94,29.76,11,1,11,0.96
2012-7-28,81,70,62,65,60,53,94,72,41,30.09,29.94,12,2,12,0.96
2012-7-29,85,71,59,62,56,49,91,63,33,30.12,30.00,8,0,8,0.96
2012-7-30,88,76,65,64,59,53,76,59,39,30.00,29.88,17,1,17,0.96
2012-7-31,86,73,64,70,65,58,96,76,55,29.97,29.82,21,2,21,0.96
2012-8-1,85,72,61,63,60,56,93,69,40,29.97,29.88,10,1,10,0.96
2012-8-2,91,76,66,67,64,59,83,67,42,29.91,29.85,11,1,11,0.96
2012-8-3,95,79,68,68,64,58,92,64,32,29.94,29.88,17,1,17,0.96
2012-8-4,91,78,69,72,67,62,90,70,46,29.94,29.79,16,2,16,0.96
2012-8-5,84,74,63,69,62,49,92,68,43,30.12,29.85,22,3,22,0.96
2012-8-6,82,73,62,54,49,45,56,43,32,30.06,30.00,8,1,8,0.00
2012-8-7,90,73,58,61,55,47,79,55,34,30.00,29.91,14,1,14,0.00
2012-8-8,89,76,68,60,55,50,68,50,33,30.00,29.94,9,2,9,0.00
2012-8-9,73,66,60,64,59,52,98,81,49,29.94,29.82,13,1,13,0.75
2012-8-10,61,58,55,60,58,55,98,98,98,29.85,29.76,15,3,15,0.70
2012-8-11,75,64,57,64,59,55,98,84,58,29.97,29.82,18,3,18,0.00
2012-8-12,73,62,54,62,56,51,93,82,62,30.00,29.97,15,1,15,0.00
2012-8-13,66,64,62,62,60,58,96,87,80,30.00,29.94,6,0,6,0.12
2012-8-14,77,66,60,66,61,58,98,84,57,29.94,29.88,11,1,11,0.05
2012-8-15,83,70,62,66,61,56,93,75,46,29.97,29.91,10,1,10,0.12
2012-8-16,71,67,64,67,63,60,97,87,76,29.94,29.76,20,2,20,0.41
2012-8-17,73,63,55,63,56,48,97,80,50,30.00,29.85,11,1,11,0.12
2012-8-18,64,52,47,53,47,43,92,82,57,30.03,29.97,8,0,8,0.00
2012-8-19,79,64,54,57,50,47,88,63,36,29.97,29.91,9,1,9,0.00
2012-8-20,78,64,53,56,51,48,89,66,40,29.97,29.91,11,1,11,0.00
2012-8-21,80,65,53,52,50,47,82,60,35,30.09,29.97,10,1,10,0.00
2012-8-22,71,58,52,58,50,46,89,77,50,30.15,30.06,9,0,9,0.00
2012-8-23,88,70,56,59,54,50,85,59,33,30.12,30.06,15,1,15,0.00
2012-8-24,91,74,61,62,56,53,82,57,30,30.09,30.00,18,1,18,0.00
2012-8-25,93,76,63,64,58,54,80,57,31,30.09,30.03,11,1,11,0.00
2012-8-26,91,74,65,68,62,57,94,68,39,30.09,30.00,21,2,21,0.67
2012-8-27,82,72,65,75,66,57,98,84,52,30.03,29.97,15,1,15,0.24
2012-8-28,81,68,58,62,57,53,87,69,46,30.12,30.03,9,1,9,0.00
2012-8-29,83,68,58,60,54,47,91,64,34,30.09,30.00,9,1,9,0.00
2012-8-30,86,62,56,59,52,49,87,71,36,30.06,29.97,18,0,18,0.00
2012-8-31,94,77,65,72,63,54,83,63,40,30.06,29.97,13,2,13,0.00
2012-9-1,78,72,68,70,65,58,92,79,62,30.09,30.00,10,1,10,0.09
2012-9-2,82,72,66,72,65,60,84,79,69,30.00,29.91,16,2,16,0.00
2012-9-3,90,76,65,73,66,61,85,73,47,29.97,29.85,10,1,10,0.00
2012-9-4,81,76,68,74,70,66,97,83,71,29.91,29.85,11,1,11,0.04
2012-9-5,84,73,67,70,66,62,96,80,51,29.88,29.79,15,1,15,0.00
2012-9-6,87,72,63,69,62,55,94,74,44,29.94,29.82,14,1,14,0.00
2012-9-7,79,69,58,64,61,54,94,76,53,29.94,29.74,11,1,11,0.12
2012-9-8,71,60,54,56,52,46,93,76,48,29.85,29.74,24,2,24,0.04
2012-9-9,70,59,52,62,53,47,98,81,59,30.09,29.85,20,1,20,0.37
2012-9-10,76,58,47,52,46,43,91,69,38,30.21,30.09,10,1,10,0.00
2012-9-11,82,65,52,55,49,44,78,57,36,30.18,30.09,22,2,22,0.00
2012-9-12,86,69,54,60,52,48,82,58,34,30.18,30.09,17,1,17,0.00
2012-9-13,82,67,57,61,55,50,91,67,43,30.27,30.15,15,1,15,0.17
2012-9-14,72,56,52,58,51,44,96,88,45,30.30,30.24,22,1,22,0.13
2012-9-15,77,59,45,50,44,40,91,63,34,30.30,30.12,9,1,9,0.13
2012-9-16,79,61,48,55,46,41,85,61,31,30.15,29.97,17,1,17,0.00
2012-9-17,76,62,53,58,50,45,77,67,46,30.00,29.71,12,1,12,0.13
2012-9-18,64,55,47,58,47,34,93,75,46,29.97,29.68,23,3,23,0.00
2012-9-19,69,55,40,44,38,34,86,58,33,30.06,29.88,22,3,22,0.03
2012-9-20,72,60,50,48,41,35,68,49,37,29.91,29.82,24,2,24,0.00
2012-9-21,68,54,47,48,43,38,89,69,34,29.91,29.76,18,1,18,0.25
2012-9-22,53,49,44,51,47,43,98,94,87,30.09,29.74,11,0,11,0.79
2012-9-23,55,47,42,50,45,38,98,91,68,30.21,30.06,11,0,11,0.16
2012-9-24,63,47,40,40,36,30,87,69,34,30.18,29.88,15,1,15,0.00
2012-9-25,68,58,46,56,44,33,90,60,43,29.91,29.85,11,1,11,0.00
2012-9-26,71,61,54,61,54,43,97,78,47,30.12,29.85,9,0,9,0.00
2012-9-27,70,56,47,50,45,40,86,67,49,30.18,30.09,13,1,13,0.00
2012-9-28,69,58,51,52,46,42,82,66,47,30.15,30.06,10,0,10,0.00
2012-9-29,75,56,43,52,44,38,86,65,38,30.09,29.94,16,0,16,0.00
2012-9-30,68,55,47,48,42,38,88,63,40,29.97,29.91,9,1,9,0.00
2012-10-1,65,53,42,47,42,36,86,67,47,29.94,29.82,9,0,9,0.00
2012-10-2,68,60,53,51,47,44,76,63,47,29.88,29.79,11,0,11,0.00
2012-10-3,62,58,57,57,55,50,96,88,76,30.03,29.88,18,1,18,0.12
2012-10-4,78,63,53,61,54,49,97,77,41,30.06,29.97,23,1,23,0.17
2012-10-5,57,50,45,53,45,40,90,84,67,30.06,29.97,9,0,9,0.08
2012-10-6,45,43,42,39,37,34,87,78,66,30.09,30.00,16,1,16,0.00
2012-10-7,46,42,37,40,37,31,87,82,70,30.12,30.06,7,0,7,0.04
2012-10-8,58,43,33,34,28,23,86,58,36,30.15,30.03,21,1,21,0.00
2012-10-9,63,50,39,39,32,23,64,50,39,30.03,29.79,40,3,40,0.04
2012-10-10,53,42,37,39,34,27,87,72,53,30.12,29.82,21,2,21,0.25
2012-10-11,63,45,33,38,31,26,77,60,35,30.18,30.00,14,2,14,0.00
2012-10-12,55,42,33,36,30,21,82,63,38,30.41,30.18,11,3,11,0.13
2012-10-13,62,45,33,61,39,22,98,81,59,30.33,29.85,13,1,13,1.24
2012-10-14,69,62,50,65,60,48,98,93,65,29.85,29.44,24,4,24,0.87
2012-10-15,49,46,37,48,44,34,97,92,84,29.94,29.62,10,1,10,0.09
2012-10-16,62,47,32,44,37,29,96,71,45,29.94,29.65,12,3,12,0.00
2012-10-17,73,60,53,54,48,40,92,65,40,29.65,29.47,30,4,30,0.12
2012-10-18,59,52,44,55,43,30,96,73,40,29.62,29.32,34,5,34,0.58
2012-10-19,50,45,43,47,42,37,95,90,79,29.59,29.50,10,1,10,0.41
2012-10-20,56,46,41,53,45,38,97,94,87,29.88,29.59,26,1,26,0.17
2012-10-21,64,49,38,47,41,36,97,78,45,30.06,29.88,16,1,16,0.33
2012-10-22,65,55,44,60,50,41,98,84,68,30.03,29.88,21,1,21,0.75
2012-10-23,65,61,59,65,61,58,98,98,97,29.97,29.88,9,0,9,0.04
2012-10-24,79,67,57,65,60,57,98,81,53,29.97,29.91,26,1,26,0.33
2012-10-25,78,67,54,58,55,46,83,67,45,29.94,29.76,24,5,24,0.33
2012-10-26,54,45,39,46,34,26,88,67,50,30.24,29.88,13,3,13,0.33
2012-10-27,45,37,33,32,28,25,76,69,57,30.24,30.18,9,1,9,0.33
2012-10-28,47,40,34,30,26,22,70,57,46,30.21,30.12,16,3,16,0.00
2012-10-29,46,41,33,23,22,19,63,46,40,30.15,29.85,17,6,17,0.00
2012-10-30,40,38,36,35,29,18,91,74,43,29.85,29.59,21,7,21,0.17
2012-10-31,41,39,36,37,35,32,91,86,78,29.74,29.62,21,4,21,0.08
2012-11-1,41,38,36,35,30,23,78,73,50,29.82,29.74,11,2,11,0.00
2012-11-2,46,39,33,29,26,24,70,60,50,30.09,29.82,18,2,18,0.00
2012-11-3,42,34,29,29,25,22,82,69,55,30.18,30.09,10,1,10,0.00
2012-11-4,42,34,26,28,24,17,79,68,53,30.18,30.12,9,1,9,0.00
2012-11-5,48,31,21,30,21,15,83,66,48,30.18,30.09,13,1,13,0.00
2012-11-6,48,32,23,30,21,16,78,63,47,30.09,29.91,14,1,24,0.00
2012-11-7,52,39,30,32,26,20,73,59,44,30.12,29.91,18,2,18,0.00
2012-11-8,46,35,25,34,26,18,80,70,60,30.18,30.09,10,0,10,0.00
2012-11-9,56,35,29,40,28,24,86,78,54,30.12,30.09,13,1,16,0.00
2012-11-10,65,61,55,49,44,42,64,53,47,30.03,29.85,26,5,26,0.00
2012-11-11,70,61,53,48,43,40,65,51,43,30.03,29.85,40,8,40,0.00
2012-11-12,60,41,32,48,31,18,89,68,48,30.24,29.85,27,8,27,0.34
2012-11-13,39,32,26,21,18,14,67,55,48,30.44,30.24,16,2,16,0.00
2012-11-14,36,32,27,21,19,17,68,58,51,30.39,30.36,0,0,0,0.00
2012-11-15,46,32,23,30,21,16,77,65,48,30.36,30.30,11,0,11,0.00
2012-11-16,56,36,24,38,24,16,79,65,42,30.44,30.33,11,0,11,0.00
2012-11-17,56,36,26,34,25,19,79,66,39,30.53,30.44,12,1,12,0.00
2012-11-18,60,41,29,36,27,22,80,59,36,30.44,30.36,14,1,14,0.00
2012-11-19,56,43,32,35,28,23,74,57,42,30.36,30.12,10,0,10,0.00
2012-11-20,50,44,37,39,34,27,81,70,59,30.12,30.03,7,0,7,0.00
2012-11-21,57,42,32,47,36,28,90,81,64,30.21,30.12,13,0,13,0.00
2012-11-22,62,49,36,48,40,34,97,74,46,30.12,29.03,54,4,54,0.00
2012-11-23,54,37,30,48,27,20,83,68,59,30.06,29.74,47,13,47,0.04
2012-11-24,32,30,27,20,18,14,67,62,57,30.12,30.00,15,5,15,0.00
2012-11-25,38,31,26,25,20,14,77,66,59,30.00,29.82,15,4,15,0.00
2012-11-26,34,31,28,26,21,17,80,67,55,30.27,29.97,9,1,9,0.00
2012-11-27,40,29,23,21,15,10,65,54,44,30.33,30.21,14,2,14,0.00
2012-11-28,42,31,26,25,17,11,67,55,47,30.30,30.18,20,4,20,0.00
2012-11-29,50,37,26,28,22,16,70,55,40,30.24,30.12,19,4,19,0.00
2012-11-30,47,40,34,31,27,23,75,60,52,30.15,30.06,11,3,11,0.00
2012-12-1,58,45,33,47,38,26,95,79,63,30.15,29.94,24,6,24,0.00
2012-12-2,57,52,38,53,47,37,96,86,60,30.06,29.88,22,4,22,0.25
2012-12-3,62,54,38,60,53,37,98,95,80,30.06,29.85,25,7,25,0.00
2012-12-4,62,48,38,58,41,27,94,76,53,30.15,29.85,20,5,23,0.08
2012-12-5,40,32,26,27,19,15,68,58,49,30.39,30.15,15,3,15,0.00
2012-12-6,40,34,27,31,24,18,78,66,57,30.27,29.91,22,7,22,0.00
2012-12-7,44,41,37,41,38,31,95,89,77,29.94,29.85,9,0,9,0.09
2012-12-8,41,36,32,40,33,26,96,89,77,30.09,29.79,13,4,13,0.12
2012-12-9,39,34,32,38,30,26,97,86,79,30.09,29.65,15,4,15,0.13
2012-12-10,40,35,29,39,32,23,98,87,76,29.85,29.62,25,5,25,0.03
2012-12-11,35,30,28,26,20,15,87,68,48,30.09,29.85,23,6,23,0.00
2012-12-12,44,32,25,25,20,18,78,63,42,30.30,30.09,26,5,26,0.00
2012-12-13,47,35,26,27,21,18,76,59,41,30.30,30.09,19,5,19,0.00
2012-12-14,50,36,26,31,23,17,72,60,47,30.21,30.09,9,2,9,0.00
2012-12-15,47,39,30,46,32,22,97,78,59,30.09,29.62,21,6,21,0.09
2012-12-16,48,45,39,47,43,37,97,95,89,29.68,29.59,16,5,16,0.12
2012-12-17,40,38,34,37,34,29,93,84,77,29.71,29.62,7,2,7,0.00
2012-12-18,38,33,27,32,28,24,90,82,69,29.76,29.65,18,3,18,0.04
2012-12-19,40,36,32,35,33,29,92,86,77,30.06,29.71,12,2,12,0.05
2012-12-20,46,39,33,46,36,29,98,92,75,29.97,29.12,39,10,39,0.83
2012-12-21,34,33,31,31,29,22,94,86,68,29.97,29.14,26,8,26,0.00
2012-12-22,38,30,22,25,20,14,75,67,53,30.09,29.97,22,6,22,0.00
2012-12-23,33,26,19,24,18,13,81,73,64,30.00,29.85,11,1,11,0.00
2012-12-24,29,26,21,23,19,14,80,77,73,30.00,29.79,12,4,12,0.00
2012-12-25,35,25,17,22,16,12,84,70,57,30.27,30.00,16,3,16,0.00
2012-12-26,29,27,22,23,18,14,85,71,61,30.21,29.85,23,8,23,0.00
2012-12-27,33,25,21,24,18,15,81,76,66,30.12,29.97,10,2,10,0.04
2012-12-28,31,27,23,26,22,18,84,81,78,30.12,29.88,0,0,0,0.00
2012-12-29,29,26,20,24,22,16,88,84,80,30.06,29.82,5,0,5,0.00
2012-12-30,28,23,20,25,17,12,90,78,63,30.27,30.06,16,6,16,0.00
2012-12-31,34,29,23,25,21,16,78,71,64,30.12,29.91,22,6,22,0.00
2013-1-1,30,24,21,17,12,9,70,61,52,30.12,30.00,15,4,15,0.00